首页
METAR-TAF:

METAR-TAF

机场 :

Lamoni Municipal Airport

Lamoni, 艾奥瓦州, 美国

纬度: 40-37-50N, 经度: 093-54-03W, 海拔: 344米

当前天气观测

该预报发布于45分钟前的20:53 UTC
风速11节,风向
温度 -7°C
湿度 53%
气压 1029 hPa
能見度: 16.1公里
天空无云

METAR: KLWD 122053Z AUTO 17011KT 10SM CLR M07/M15 A3039 RMK AO2 SLP316 T10671150 56045

时间: 15:38 (21:38 UTC)


TAF: 丢失

超过4000个机场的气象观测和天气预报(METAR&TAF报告)。

可查询的气象台以黄色和红色小点在地图上表示。

将鼠标移到小点上方,可查看气象台名称。

然后点击查看天气观测和预报。

如需切换地图:点击带黑十字的绿色按钮放大地图;点击带横线的绿色按钮缩小地图;或者点击绿色箭头查看邻近地区的地图。


METAR-TAF: